Time;durP1;ratioP1;P1;durP2;ratioP2;P2;SDS_P1;SDS_P2;PMS_P1;PMS_P2;Temp;Humidity;BMP_temperature;BMP_pressure;BME280_temperature;BME280_humidity;BME280_pressure;Samples;Min_cycle;Max_cycle;Signal;HPM_P1;HPM_P2
2022/07/24 00:01:20;;;;;;;6.63;5.93;;;;;;;19.35;100.00;101792.41;5220979;28;20047;-71
2022/07/24 00:03:51;;;;;;;6.60;6.00;;;;;;;19.34;100.00;101792.59;5223560;28;20040;-72
2022/07/24 00:06:23;;;;;;;7.03;5.57;;;;;;;19.35;100.00;101805.69;5228033;28;20033;-72
2022/07/24 00:08:54;;;;;;;6.20;5.60;;;;;;;19.28;100.00;101790.56;5218933;28;20029;-72
2022/07/24 00:11:25;;;;;;;6.27;5.67;;;;;;;19.25;100.00;101798.91;5220801;28;20038;-72
2022/07/24 00:13:57;;;;;;;6.70;5.90;;;;;;;19.20;100.00;101786.91;5220448;28;20061;-72
2022/07/24 00:16:28;;;;;;;6.37;5.60;;;;;;;19.16;100.00;101796.19;5222003;28;20022;-72
2022/07/24 00:19:00;;;;;;;6.60;5.70;;;;;;;19.22;100.00;101785.94;5225961;28;20053;-72
2022/07/24 00:21:31;;;;;;;6.75;6.00;;;;;;;19.28;100.00;101783.47;5220988;28;20020;-72
2022/07/24 00:24:02;;;;;;;6.47;5.80;;;;;;;19.25;100.00;101782.94;5220159;28;20132;-72
2022/07/24 00:26:34;;;;;;;6.50;5.87;;;;;;;19.15;100.00;101778.59;5218543;28;20398;-72
2022/07/24 00:29:06;;;;;;;8.23;6.10;;;;;;;19.27;100.00;101775.63;5224148;28;20026;-71
2022/07/24 00:31:37;;;;;;;6.90;5.67;;;;;;;19.20;100.00;101778.94;5223032;28;20029;-72
2022/07/24 00:34:08;;;;;;;7.78;5.90;;;;;;;19.33;100.00;101789.09;5228368;28;20907;-71
2022/07/24 00:36:43;;;;;;;7.60;6.27;;;;;;;19.29;100.00;101776.31;5223326;28;20026;-71
2022/07/24 00:39:14;;;;;;;6.40;5.80;;;;;;;19.19;100.00;101782.59;5226263;28;20034;-71
2022/07/24 00:41:45;;;;;;;8.43;6.83;;;;;;;19.33;100.00;101791.75;5218629;28;20045;-72
2022/07/24 00:44:17;;;;;;;6.97;6.33;;;;;;;19.34;100.00;101785.44;5222282;28;20025;-72
2022/07/24 00:46:48;;;;;;;7.07;5.87;;;;;;;19.27;100.00;101789.75;5220591;28;20022;-72
2022/07/24 00:49:20;;;;;;;7.37;6.27;;;;;;;19.31;100.00;101790.25;5220356;28;20072;-71
2022/07/24 00:51:52;;;;;;;6.63;5.82;;;;;;;19.33;100.00;101786.44;5227114;28;20056;-71
2022/07/24 00:54:23;;;;;;;9.23;6.00;;;;;;;19.37;100.00;101781.63;5222095;28;20045;-71
2022/07/24 00:56:55;;;;;;;7.93;6.60;;;;;;;19.36;100.00;101774.66;5220297;28;20021;-72
2022/07/24 00:59:26;;;;;;;8.50;6.72;;;;;;;19.36;100.00;101777.31;5222360;28;20112;-71
2022/07/24 01:01:57;;;;;;;8.67;6.50;;;;;;;19.42;100.00;101782.78;5221870;28;20028;-72
2022/07/24 01:04:29;;;;;;;7.30;6.28;;;;;;;19.35;100.00;101778.28;5223806;28;20037;-72
2022/07/24 01:07:00;;;;;;;8.70;6.30;;;;;;;19.39;100.00;101782.28;5222373;28;20026;-71
2022/07/24 01:09:32;;;;;;;10.85;6.88;;;;;;;19.37;100.00;101779.81;5227478;28;20103;-71
2022/07/24 01:12:03;;;;;;;7.10;6.10;;;;;;;19.31;100.00;101771.66;5220492;28;20501;-71
2022/07/24 01:14:35;;;;;;;7.32;6.50;;;;;;;19.37;100.00;101773.66;5221016;28;20584;-73
2022/07/24 01:17:06;;;;;;;7.73;6.00;;;;;;;19.33;100.00;101764.34;5222304;28;20029;-73
2022/07/24 01:19:37;;;;;;;7.75;6.22;;;;;;;19.30;100.00;101770.81;5222896;28;20041;-73
2022/07/24 01:22:09;;;;;;;6.83;5.60;;;;;;;19.28;100.00;101775.50;5220140;28;20060;-73
2022/07/24 01:24:40;;;;;;;6.75;6.03;;;;;;;19.25;100.00;101772.31;5223506;28;20108;-73
2022/07/24 01:27:12;;;;;;;8.33;6.57;;;;;;;19.20;100.00;101780.75;5224021;28;20120;-71
2022/07/24 01:29:44;;;;;;;9.57;7.88;;;;;;;19.10;100.00;101780.09;5218927;28;20443;-71
2022/07/24 01:32:15;;;;;;;8.20;6.97;;;;;;;19.10;100.00;101774.78;5218769;28;20034;-71
2022/07/24 01:34:47;;;;;;;8.13;7.32;;;;;;;18.97;100.00;101775.25;5224322;28;20037;-71
2022/07/24 01:37:18;;;;;;;9.67;7.80;;;;;;;18.92;100.00;101769.59;5219667;28;20537;-71
2022/07/24 01:39:49;;;;;;;8.30;7.07;;;;;;;18.89;100.00;101780.53;5222483;28;20025;-71
2022/07/24 01:42:21;;;;;;;8.47;7.17;;;;;;;18.81;100.00;101764.59;5219128;28;20033;-71
2022/07/24 01:44:52;;;;;;;8.40;7.50;;;;;;;18.78;100.00;101762.25;5220206;28;20029;-71
2022/07/24 01:47:23;;;;;;;7.88;7.15;;;;;;;18.76;100.00;101758.94;5219297;28;20025;-71
2022/07/24 01:49:55;;;;;;;8.47;7.60;;;;;;;18.70;100.00;101769.19;5218800;28;20502;-72
2022/07/24 01:52:26;;;;;;;7.90;7.20;;;;;;;18.71;100.00;101757.59;5224572;28;20100;-72
2022/07/24 01:54:57;;;;;;;8.43;7.63;;;;;;;18.66;100.00;101761.69;5220379;28;20487;-73
2022/07/24 01:57:29;;;;;;;10.40;8.50;;;;;;;18.70;100.00;101755.06;5221986;28;20501;-72
2022/07/24 02:00:01;;;;;;;8.85;8.05;;;;;;;18.68;100.00;101760.53;5219897;28;20034;-72
2022/07/24 02:02:32;;;;;;;8.35;7.35;;;;;;;18.63;100.00;101759.34;5219877;28;20243;-72
2022/07/24 02:05:04;;;;;;;10.95;8.90;;;;;;;18.58;100.00;101764.31;5215769;28;20445;-72
2022/07/24 02:07:35;;;;;;;8.93;8.02;;;;;;;18.64;100.00;101753.91;5232939;28;20406;-72
2022/07/24 02:10:08;;;;;;;10.07;8.53;;;;;;;18.54;100.00;101755.00;5217725;28;20034;-72
2022/07/24 02:12:40;;;;;;;8.98;8.07;;;;;;;18.52;100.00;101760.47;5217688;28;20409;-71
2022/07/24 02:15:11;;;;;;;9.10;7.93;;;;;;;18.54;100.00;101758.50;5228535;28;20045;-71
2022/07/24 02:17:47;;;;;;;8.73;7.82;;;;;;;18.59;100.00;101758.00;5223307;28;20037;-71
2022/07/24 02:20:19;;;;;;;9.68;8.10;;;;;;;18.43;100.00;101764.09;5225981;28;20036;-71
2022/07/24 02:22:51;;;;;;;9.77;7.82;;;;;;;18.46;100.00;101763.78;5221617;28;20427;-72
2022/07/24 02:25:22;;;;;;;8.87;7.97;;;;;;;18.33;100.00;101752.75;5223723;28;20744;-71
2022/07/24 02:27:53;;;;;;;10.68;8.35;;;;;;;18.35;100.00;101754.28;5228205;28;20029;-72
2022/07/24 02:30:25;;;;;;;8.80;7.90;;;;;;;18.30;100.00;101750.44;5221308;28;20040;-72
2022/07/24 02:32:57;;;;;;;8.97;8.07;;;;;;;18.24;100.00;101758.03;5225229;28;20424;-72
2022/07/24 02:35:28;;;;;;;8.95;8.05;;;;;;;18.21;100.00;101761.00;5223916;28;20033;-72
2022/07/24 02:37:59;;;;;;;9.45;8.55;;;;;;;18.14;100.00;101757.31;5223643;28;20026;-71
2022/07/24 02:40:31;;;;;;;9.05;8.20;;;;;;;18.16;100.00;101758.00;5222809;28;20030;-72
2022/07/24 02:43:03;;;;;;;9.90;8.13;;;;;;;18.11;100.00;101760.28;5222814;28;20064;-72
2022/07/24 02:45:34;;;;;;;9.03;8.13;;;;;;;18.08;100.00;101773.84;5225434;28;20025;-72
2022/07/24 02:48:05;;;;;;;9.02;8.13;;;;;;;18.07;100.00;101774.84;5220523;28;20128;-71
2022/07/24 02:50:38;;;;;;;11.00;9.57;;;;;;;18.07;100.00;101772.22;5218462;28;20554;-72
2022/07/24 02:53:09;;;;;;;;;;;;;;;18.67;100.00;101779.28;5235853;23;20410;-68
2022/07/24 02:55:41;;;;;;;9.73;8.80;;;;;;;17.97;100.00;101777.59;5231731;28;19924;-69
2022/07/24 02:58:12;;;;;;;10.57;9.48;;;;;;;17.99;100.00;101775.63;5230532;28;20120;-68
2022/07/24 03:00:44;;;;;;;10.23;9.10;;;;;;;17.95;100.00;101766.31;5245655;28;20117;-68
2022/07/24 03:03:15;;;;;;;12.55;9.23;;;;;;;17.98;100.00;101765.16;5228535;28;20033;-68
2022/07/24 03:05:46;;;;;;;11.70;9.65;;;;;;;17.94;100.00;101774.41;5226456;28;20501;-69
2022/07/24 03:08:18;;;;;;;11.57;10.38;;;;;;;17.94;100.00;101767.31;5224430;28;20026;-68
2022/07/24 03:10:49;;;;;;;13.38;9.82;;;;;;;17.92;100.00;101758.69;5224039;28;20055;-68
2022/07/24 03:13:20;;;;;;;11.25;10.15;;;;;;;17.91;100.00;101757.00;5225285;28;20399;-68
2022/07/24 03:15:52;;;;;;;12.00;10.48;;;;;;;17.88;100.00;101759.97;5227475;28;20410;-69
2022/07/24 03:18:23;;;;;;;12.77;11.67;;;;;;;17.81;100.00;101758.94;5225737;28;20375;-68
2022/07/24 03:20:54;;;;;;;12.35;11.05;;;;;;;17.85;100.00;101762.94;5225950;28;20037;-68
2022/07/24 03:23:25;;;;;;;13.25;11.88;;;;;;;17.85;100.00;101756.81;5222746;28;20026;-69
2022/07/24 03:25:57;;;;;;;12.60;11.30;;;;;;;17.80;100.00;101759.91;5220135;28;20037;-68
2022/07/24 03:28:29;;;;;;;12.88;11.68;;;;;;;17.74;100.00;101756.03;5222713;28;20030;-68
2022/07/24 03:31:01;;;;;;;13.20;11.80;;;;;;;17.78;100.00;101758.41;5223302;28;20053;-68
2022/07/24 03:33:33;;;;;;;13.50;12.10;;;;;;;17.80;100.00;101764.38;5222647;28;20890;-68
2022/07/24 03:36:04;;;;;;;14.73;12.68;;;;;;;17.74;100.00;101764.00;5223676;28;20033;-68
2022/07/24 03:38:36;;;;;;;13.68;12.27;;;;;;;17.73;100.00;101762.34;5222823;28;20030;-68
2022/07/24 03:41:07;;;;;;;14.32;12.82;;;;;;;17.67;100.00;101762.09;5225077;28;20033;-68
2022/07/24 03:43:38;;;;;;;13.85;12.45;;;;;;;17.66;100.00;101768.41;5225333;28;20395;-69
2022/07/24 03:46:09;;;;;;;14.50;12.93;;;;;;;17.69;100.00;101755.69;5227029;28;20551;-68
2022/07/24 03:48:41;;;;;;;14.77;13.13;;;;;;;17.59;100.00;101752.28;5219312;28;20494;-68
2022/07/24 03:51:15;;;;;;;14.70;13.20;;;;;;;17.61;100.00;101750.28;5223855;28;20034;-68
2022/07/24 03:53:47;;;;;;;14.25;12.85;;;;;;;17.50;100.00;101751.41;5224544;28;20061;-68
2022/07/24 03:56:18;;;;;;;15.30;13.90;;;;;;;17.53;100.00;101752.88;5222659;28;20083;-68
2022/07/24 03:58:50;;;;;;;15.50;13.88;;;;;;;17.51;100.00;101744.28;5221120;28;20033;-68
2022/07/24 04:01:22;;;;;;;15.93;14.38;;;;;;;17.51;100.00;101746.91;5221381;28;20064;-69
2022/07/24 04:03:53;;;;;;;17.63;15.67;;;;;;;17.52;100.00;101746.75;5223405;28;20693;-69
2022/07/24 04:06:24;;;;;;;20.00;16.60;;;;;;;17.52;100.00;101751.22;5223134;28;20029;-68
2022/07/24 04:08:56;;;;;;;18.15;16.27;;;;;;;17.52;100.00;101752.06;5219988;28;20022;-68
2022/07/24 04:11:27;;;;;;;19.80;17.83;;;;;;;17.44;100.00;101737.91;5221348;28;20034;-68
2022/07/24 04:13:59;;;;;;;21.83;15.73;;;;;;;17.50;100.00;101739.94;5222737;28;20022;-69
2022/07/24 04:16:30;;;;;;;20.27;18.05;;;;;;;17.44;100.00;101738.75;5220938;28;20079;-68
2022/07/24 04:19:02;;;;;;;18.10;16.30;;;;;;;17.53;100.00;101744.94;5220923;28;20112;-68
2022/07/24 04:21:34;;;;;;;20.73;18.57;;;;;;;17.54;100.00;101743.13;5224958;28;20113;-69
2022/07/24 04:24:08;;;;;;;21.08;19.05;;;;;;;17.59;100.00;101746.97;5224077;28;20033;-68
2022/07/24 04:26:40;;;;;;;20.92;18.73;;;;;;;17.52;100.00;101751.22;5224729;28;20064;-68
2022/07/24 04:29:11;;;;;;;20.20;18.15;;;;;;;17.57;100.00;101751.59;5223124;28;20159;-68
2022/07/24 04:31:42;;;;;;;22.57;19.93;;;;;;;17.55;100.00;101755.41;5219786;28;20115;-68
2022/07/24 04:34:13;;;;;;;22.15;19.92;;;;;;;17.52;100.00;101749.41;5224627;28;20291;-68
2022/07/24 04:36:45;;;;;;;22.40;20.20;;;;;;;17.55;100.00;101761.53;5224406;28;20037;-68
2022/07/24 04:39:16;;;;;;;22.85;20.20;;;;;;;17.58;100.00;101761.22;5223958;28;20030;-68
2022/07/24 04:41:47;;;;;;;24.98;22.48;;;;;;;17.52;100.00;101764.47;5221226;28;20086;-68
2022/07/24 04:44:19;;;;;;;24.42;21.92;;;;;;;17.58;100.00;101773.63;5221371;28;20474;-69
2022/07/24 04:46:50;;;;;;;23.15;20.67;;;;;;;17.59;100.00;101768.19;5222432;28;20439;-68
2022/07/24 04:49:21;;;;;;;25.55;22.90;;;;;;;17.62;100.00;101767.88;5226111;28;20030;-68
2022/07/24 04:51:53;;;;;;;26.98;23.38;;;;;;;17.61;100.00;101760.91;5220551;28;20033;-68
2022/07/24 04:54:24;;;;;;;28.13;25.10;;;;;;;17.61;100.00;101762.72;5222632;28;20036;-69
2022/07/24 04:56:55;;;;;;;30.17;25.35;;;;;;;17.65;100.00;101767.56;5221726;28;20026;-69
2022/07/24 04:59:26;;;;;;;29.10;23.65;;;;;;;17.66;100.00;101766.59;5222650;28;20104;-69
2022/07/24 05:01:58;;;;;;;27.58;24.73;;;;;;;17.69;100.00;101762.78;5222659;28;20056;-68
2022/07/24 05:04:29;;;;;;;27.42;24.48;;;;;;;17.72;100.00;101763.28;5221358;28;20034;-68
2022/07/24 05:07:02;;;;;;;27.58;24.70;;;;;;;17.76;100.00;101763.84;5222101;28;20025;-68
2022/07/24 05:09:33;;;;;;;28.50;25.60;;;;;;;17.74;100.00;101756.03;5224054;28;20042;-68
2022/07/24 05:12:04;;;;;;;30.92;26.55;;;;;;;17.81;100.00;101755.47;5224073;28;20033;-67
2022/07/24 05:14:36;;;;;;;29.70;26.58;;;;;;;17.85;100.00;101759.47;5220657;28;20036;-69
2022/07/24 05:17:07;;;;;;;27.83;25.10;;;;;;;17.92;100.00;101765.81;5219645;28;20018;-68
2022/07/24 05:19:38;;;;;;;29.63;26.48;;;;;;;17.94;100.00;101762.00;5225589;28;20060;-67
2022/07/24 05:22:10;;;;;;;30.55;27.45;;;;;;;17.94;100.00;101755.88;5223089;28;20049;-68
2022/07/24 05:24:41;;;;;;;29.25;26.23;;;;;;;17.99;100.00;101769.47;5224107;28;20789;-67
2022/07/24 05:27:12;;;;;;;27.45;24.63;;;;;;;18.03;100.00;101768.16;5224720;28;20109;-69
2022/07/24 05:29:43;;;;;;;31.67;27.17;;;;;;;18.07;100.00;101774.84;5223286;28;20040;-68
2022/07/24 05:32:15;;;;;;;30.23;26.88;;;;;;;18.16;100.00;101773.06;5224249;28;20035;-68
2022/07/24 05:34:46;;;;;;;30.00;27.10;;;;;;;18.17;100.00;101772.91;5230111;28;20032;-67
2022/07/24 05:37:17;;;;;;;29.27;25.90;;;;;;;18.22;100.00;101775.94;5223913;28;20084;-67
2022/07/24 05:39:48;;;;;;;30.33;27.13;;;;;;;18.27;100.00;101778.13;5221525;28;20037;-68
2022/07/24 05:42:20;;;;;;;32.97;28.10;;;;;;;18.29;100.00;101773.47;5226305;28;20033;-68
2022/07/24 05:44:51;;;;;;;29.50;26.40;;;;;;;18.34;100.00;101778.31;5222119;28;20596;-70
2022/07/24 05:47:23;;;;;;;30.50;27.02;;;;;;;18.38;100.00;101774.34;5223862;28;20033;-69
2022/07/24 05:49:54;;;;;;;31.23;27.83;;;;;;;18.47;100.00;101779.53;5224649;28;20034;-68
2022/07/24 05:52:25;;;;;;;27.90;25.02;;;;;;;18.54;100.00;101773.59;5228381;28;20511;-72
2022/07/24 05:54:56;;;;;;;29.52;26.42;;;;;;;18.57;100.00;101774.09;5226100;28;20025;-69
2022/07/24 05:57:28;;;;;;;29.20;26.15;;;;;;;18.66;100.00;101778.44;5223392;28;20025;-70
2022/07/24 05:59:59;;;;;;;29.73;26.60;;;;;;;18.73;100.00;101778.66;5226948;28;20536;-70
2022/07/24 06:02:30;;;;;;;26.30;23.50;;;;;;;18.69;100.00;101761.38;5223587;28;20079;-69
2022/07/24 06:05:02;;;;;;;28.60;25.67;;;;;;;18.85;100.00;101779.19;5225600;28;20052;-69
2022/07/24 06:07:33;;;;;;;29.25;24.20;;;;;;;18.93;100.00;101776.56;5225577;28;20025;-70
2022/07/24 06:10:05;;;;;;;27.00;23.77;;;;;;;19.02;100.00;101782.75;5224016;28;20033;-70
2022/07/24 06:12:37;;;;;;;29.25;23.27;;;;;;;19.12;100.00;101786.91;5224302;28;20143;-70
2022/07/24 06:15:08;;;;;;;25.33;22.60;;;;;;;19.22;100.00;101783.28;5224299;28;20068;-68
2022/07/24 06:17:40;;;;;;;25.37;22.80;;;;;;;19.29;100.00;101784.28;5220749;28;20458;-68
2022/07/24 06:20:12;;;;;;;24.17;21.77;;;;;;;19.39;100.00;101790.25;5226351;28;20037;-68
2022/07/24 06:22:44;;;;;;;25.05;22.42;;;;;;;19.54;100.00;101796.56;5225999;28;20033;-70
2022/07/24 06:25:17;;;;;;;25.90;22.80;;;;;;;19.62;100.00;101793.97;5224156;28;20506;-70
2022/07/24 06:27:49;;;;;;;27.23;21.40;;;;;;;19.75;100.00;101793.47;5224303;28;20288;-71
2022/07/24 06:30:23;;;;;;;22.60;20.25;;;;;;;19.89;100.00;101786.63;5231872;28;20112;-68
2022/07/24 06:32:56;;;;;;;23.20;20.30;;;;;;;19.95;100.00;101791.28;5216082;28;20049;-69
2022/07/24 06:35:28;;;;;;;22.63;19.67;;;;;;;20.09;100.00;101793.25;5221942;28;20052;-68
2022/07/24 06:38:00;;;;;;;22.63;19.05;;;;;;;20.27;100.00;101792.22;5226487;28;20586;-69
2022/07/24 06:40:33;;;;;;;21.00;18.88;;;;;;;20.34;100.00;101799.34;5225565;28;20061;-69
2022/07/24 06:43:04;;;;;;;20.00;17.52;;;;;;;20.50;100.00;101790.50;5219202;28;20390;-68
2022/07/24 06:45:36;;;;;;;18.80;16.80;;;;;;;20.60;100.00;101780.44;5222000;28;20037;-68
2022/07/24 06:48:07;;;;;;;21.13;16.27;;;;;;;20.72;100.00;101780.94;5219145;28;20016;-68
2022/07/24 06:50:38;;;;;;;17.70;15.53;;;;;;;20.88;100.00;101788.81;5220984;28;20116;-69
2022/07/24 06:53:09;;;;;;;18.47;16.43;;;;;;;21.03;100.00;101788.09;5225617;28;20050;-70
2022/07/24 06:55:41;;;;;;;17.53;15.73;;;;;;;21.14;100.00;101783.19;5226044;28;20053;-68
2022/07/24 06:58:12;;;;;;;15.10;13.63;;;;;;;21.34;100.00;101782.72;5223903;28;20025;-69
2022/07/24 07:00:44;;;;;;;15.30;13.57;;;;;;;21.48;100.00;101778.44;5221188;28;20028;-69
2022/07/24 07:03:17;;;;;;;14.67;13.13;;;;;;;21.64;100.00;101780.16;5221854;28;20087;-70
2022/07/24 07:05:48;;;;;;;14.30;12.75;;;;;;;21.74;100.00;101773.53;5222682;28;20096;-69
2022/07/24 07:08:19;;;;;;;15.53;11.67;;;;;;;21.89;98.34;101770.91;5222644;28;20057;-69
2022/07/24 07:10:50;;;;;;;13.37;11.33;;;;;;;21.98;93.86;101767.16;5224691;28;20048;-69
2022/07/24 07:13:22;;;;;;;11.90;10.23;;;;;;;22.11;92.49;101764.66;5219775;28;20213;-69
2022/07/24 07:15:53;;;;;;;12.07;10.87;;;;;;;22.28;92.11;101770.69;5221260;28;20062;-70
2022/07/24 07:18:24;;;;;;;10.37;8.93;;;;;;;22.39;86.50;101785.44;5220399;28;20124;-69
2022/07/24 07:20:56;;;;;;;11.80;8.77;;;;;;;22.54;83.50;101788.91;5220723;28;20029;-69
2022/07/24 07:23:27;;;;;;;8.10;7.00;;;;;;;22.68;85.57;101789.88;5221042;28;20087;-69
2022/07/24 07:25:59;;;;;;;10.27;6.87;;;;;;;22.83;82.00;101784.50;5219582;28;20030;-71
2022/07/24 07:28:30;;;;;;;5.63;4.90;;;;;;;22.86;71.86;101786.00;5214263;28;20034;-69
2022/07/24 07:31:01;;;;;;;8.00;5.00;;;;;;;23.03;72.97;101779.41;5223979;28;20519;-70
2022/07/24 07:33:32;;;;;;;5.57;4.87;;;;;;;23.10;70.76;101777.63;5223085;28;20382;-70
2022/07/24 07:36:04;;;;;;;5.87;5.07;;;;;;;23.17;68.22;101777.72;5222330;28;20029;-69
2022/07/24 07:38:37;;;;;;;5.97;4.37;;;;;;;23.23;66.16;101782.31;5218240;28;20030;-70
2022/07/24 07:41:08;;;;;;;6.35;4.80;;;;;;;23.23;64.71;101784.97;5219027;28;20116;-70
2022/07/24 07:43:40;;;;;;;4.47;4.07;;;;;;;23.30;63.61;101775.19;5225144;28;20793;-69
2022/07/24 07:46:12;;;;;;;4.10;3.53;;;;;;;23.44;61.59;101782.28;5221747;28;20017;-70
2022/07/24 07:48:44;;;;;;;3.90;3.20;;;;;;;23.63;59.33;101779.97;5222824;28;20065;-69
2022/07/24 07:51:16;;;;;;;4.63;3.20;;;;;;;23.79;58.97;101785.09;5221670;28;20120;-69
2022/07/24 07:53:48;;;;;;;3.73;2.97;;;;;;;23.88;55.66;101783.09;5222321;28;20135;-69
2022/07/24 07:56:20;;;;;;;4.65;2.65;;;;;;;23.81;57.51;101774.19;5220117;28;20292;-70
2022/07/24 07:58:51;;;;;;;3.10;2.38;;;;;;;23.88;54.49;101775.88;5211795;28;20096;-70
2022/07/24 08:01:23;;;;;;;3.37;2.40;;;;;;;24.12;55.86;101776.44;5217259;28;20026;-70
2022/07/24 08:03:54;;;;;;;3.57;2.50;;;;;;;24.26;56.12;101768.28;5221220;28;20060;-70
2022/07/24 08:06:25;;;;;;;3.97;2.37;;;;;;;24.32;53.32;101774.72;5223352;28;20147;-69
2022/07/24 08:08:57;;;;;;;3.70;2.60;;;;;;;24.45;55.37;101771.28;5222467;28;20025;-70
2022/07/24 08:11:28;;;;;;;3.43;2.60;;;;;;;24.64;53.07;101767.03;5219495;28;20022;-69
2022/07/24 08:14:00;;;;;;;3.30;2.37;;;;;;;24.66;52.95;101765.81;5220436;28;20036;-69
2022/07/24 08:16:31;;;;;;;3.13;2.47;;;;;;;24.88;52.50;101768.34;5220354;28;20037;-70
2022/07/24 08:19:03;;;;;;;4.27;2.90;;;;;;;24.98;53.01;101774.97;5224869;28;20039;-70
2022/07/24 08:21:34;;;;;;;3.60;2.60;;;;;;;25.12;52.25;101772.34;5220864;28;20037;-70
2022/07/24 08:24:06;;;;;;;3.07;2.30;;;;;;;25.21;50.85;101771.94;5216512;28;20119;-70
2022/07/24 08:26:38;;;;;;;2.97;2.30;;;;;;;25.26;51.17;101776.69;5218662;28;20765;-70
2022/07/24 08:29:09;;;;;;;4.00;2.37;;;;;;;25.31;50.34;101778.78;5220044;28;20264;-71
2022/07/24 08:31:40;;;;;;;5.70;2.70;;;;;;;25.42;50.98;101780.81;5217667;28;20038;-70
2022/07/24 08:34:12;;;;;;;3.93;2.83;;;;;;;25.48;51.19;101780.84;5220828;28;20147;-70
2022/07/24 08:36:45;;;;;;;3.13;2.70;;;;;;;25.66;49.74;101782.91;5222601;28;20102;-70
2022/07/24 08:39:16;;;;;;;3.03;2.55;;;;;;;25.72;50.64;101781.22;5218179;28;20053;-70
2022/07/24 08:41:48;;;;;;;3.83;2.40;;;;;;;25.90;52.00;101780.63;5216909;28;20460;-71
2022/07/24 08:44:19;;;;;;;3.20;2.50;;;;;;;25.94;52.66;101780.00;5223895;28;20486;-70
2022/07/24 08:46:53;;;;;;;5.60;3.57;;;;;;;26.02;50.46;101768.22;5220097;28;20057;-71
2022/07/24 08:49:30;;;;;;;3.85;2.70;;;;;;;26.07;50.97;101765.75;5222880;28;20401;-70
2022/07/24 08:54:36;;;;;;;4.85;3.00;;;;;;;26.35;50.21;101765.44;5218708;28;20057;-73
2022/07/24 08:57:07;;;;;;;5.25;3.15;;;;;;;26.57;49.98;101763.31;5228077;28;20040;-72
2022/07/24 08:59:38;;;;;;;4.80;2.63;;;;;;;26.62;49.49;101762.66;5224475;28;20022;-72
2022/07/24 09:02:10;;;;;;;4.43;2.70;;;;;;;26.77;49.91;101759.69;5220382;28;20286;-72
2022/07/24 09:04:44;;;;;;;5.17;2.90;;;;;;;26.89;51.02;101772.22;5222121;28;20030;-71
2022/07/24 09:07:18;;;;;;;4.35;2.30;;;;;;;27.00;52.48;101764.50;5226247;28;20026;-70
2022/07/24 09:10:03;;;;;;;4.70;3.40;;;;;;;27.07;50.89;101768.81;5228812;28;20025;-71
2022/07/24 09:12:38;;;;;;;4.72;2.95;;;;;;;27.03;50.22;101764.91;5222247;28;20033;-71
2022/07/24 09:15:12;;;;;;;3.00;2.70;;;;;;;27.05;48.32;101767.38;5223698;28;20037;-71
2022/07/24 09:17:57;;;;;;;3.53;3.05;;;;;;;27.20;49.07;101756.34;5221973;28;20497;-71
2022/07/24 09:20:28;;;;;;;3.63;2.45;;;;;;;27.17;49.36;101752.22;5224006;28;20108;-71
2022/07/24 09:23:00;;;;;;;3.93;3.10;;;;;;;27.33;48.04;101750.88;5229479;28;20033;-71
2022/07/24 09:25:33;;;;;;;2.67;2.20;;;;;;;27.49;49.12;101752.19;5226584;28;20105;-70
2022/07/24 09:28:05;;;;;;;3.30;2.67;;;;;;;27.54;48.98;101746.94;5223359;28;20080;-71
2022/07/24 09:30:42;;;;;;;5.72;2.80;;;;;;;27.69;47.47;101744.72;5223600;28;20671;-71
2022/07/24 09:33:13;;;;;;;5.40;3.05;;;;;;;27.76;47.56;101737.44;5227250;28;20455;-71
2022/07/24 09:35:50;;;;;;;4.33;2.50;;;;;;;27.92;47.03;101733.38;5225984;28;20097;-71
2022/07/24 09:38:23;;;;;;;3.10;2.22;;;;;;;27.98;46.77;101737.84;5225278;28;20116;-71
2022/07/24 09:40:56;;;;;;;2.50;2.25;;;;;;;28.06;47.09;101732.16;5226828;28;20464;-71
2022/07/24 09:43:32;;;;;;;3.20;2.35;;;;;;;28.31;46.39;101737.44;5224332;28;20048;-71
2022/07/24 09:46:08;;;;;;;3.42;2.17;;;;;;;28.21;45.79;101739.84;5223397;28;20040;-72
2022/07/24 09:48:53;;;;;;;12.20;3.15;;;;;;;28.32;45.83;101731.00;5227440;28;20030;-72
2022/07/24 09:51:26;;;;;;;3.50;2.20;;;;;;;28.46;46.18;101728.19;5221895;28;20037;-71
2022/07/24 09:54:00;;;;;;;2.28;2.08;;;;;;;28.33;44.71;101729.13;5223827;28;20041;-71
2022/07/24 09:56:31;;;;;;;3.40;2.13;;;;;;;28.31;44.73;101725.84;5224206;28;20033;-71
2022/07/24 09:59:07;;;;;;;2.97;1.90;;;;;;;28.49;43.70;101716.94;5217333;28;20176;-72
2022/07/24 10:01:43;;;;;;;2.30;2.00;;;;;;;28.58;43.86;101716.38;5227447;28;20065;-71
2022/07/24 10:04:18;;;;;;;2.50;1.90;;;;;;;28.75;44.28;101721.97;5222502;28;20037;-71
2022/07/24 10:06:51;;;;;;;2.63;1.95;;;;;;;28.70;42.35;101719.13;5226731;28;20037;-71
2022/07/24 10:09:25;;;;;;;3.08;2.10;;;;;;;28.91;43.18;101720.50;5223289;28;20032;-71
2022/07/24 10:11:58;;;;;;;3.38;2.00;;;;;;;29.05;42.65;101716.53;5224245;28;20075;-71
2022/07/24 10:14:29;;;;;;;;;;;;;;;29.76;44.03;101709.31;5221015;28;20032;-72
2022/07/24 10:17:05;;;;;;;3.10;1.70;;;;;;;29.56;42.44;101709.66;5222916;28;19921;-72
2022/07/24 10:19:41;;;;;;;3.35;1.70;;;;;;;29.38;42.13;101704.38;5224941;28;20442;-72
2022/07/24 10:22:16;;;;;;;2.70;2.00;;;;;;;29.43;40.37;101706.38;5222617;28;20033;-72
2022/07/24 10:24:54;;;;;;;2.63;1.83;;;;;;;29.62;41.59;101694.41;5218860;28;20588;-72
2022/07/24 10:27:33;;;;;;;4.63;2.10;;;;;;;29.57;39.71;101702.38;5221762;28;20486;-72
2022/07/24 10:30:09;;;;;;;2.35;1.90;;;;;;;29.66;40.37;101700.16;5231577;28;20055;-72
2022/07/24 10:32:41;;;;;;;4.18;2.17;;;;;;;29.70;40.40;101707.56;5223152;28;20064;-72
2022/07/24 10:35:27;;;;;;;5.68;2.20;;;;;;;29.79;38.95;101698.03;5221185;28;20034;-72
2022/07/24 10:38:01;;;;;;;2.63;1.98;;;;;;;29.74;39.59;101691.72;5220562;28;20070;-72
2022/07/24 10:40:41;;;;;;;2.85;2.10;;;;;;;29.76;39.31;101689.59;5222931;28;20032;-74
2022/07/24 10:43:14;;;;;;;2.58;2.03;;;;;;;29.85;37.71;101681.94;5223217;28;20065;-73
2022/07/24 10:45:56;;;;;;;3.92;2.30;;;;;;;30.12;36.61;101684.91;5217298;28;20060;-72
2022/07/24 10:48:30;;;;;;;3.50;2.22;;;;;;;30.09;36.92;101688.09;5222865;28;20068;-72
2022/07/24 10:51:07;;;;;;;2.60;2.03;;;;;;;29.97;35.98;101688.16;5220199;28;20040;-73
2022/07/24 10:53:38;;;;;;;3.53;1.92;;;;;;;30.28;35.87;101676.91;5226353;28;20045;-72
2022/07/24 10:56:49;;;;;;;2.73;2.10;;;;;;;30.72;37.71;101673.59;5222071;28;20481;-72
2022/07/24 10:59:41;;;;;;;3.83;2.30;;;;;;;30.65;37.46;101671.06;5160969;28;20043;-72
2022/07/24 11:02:32;;;;;;;2.65;2.15;;;;;;;30.70;39.01;101667.63;5156720;28;20560;-71
2022/07/24 11:05:36;;;;;;;3.60;2.25;;;;;;;30.82;37.35;101673.81;5212804;28;20410;-71
2022/07/24 11:08:20;;;;;;;3.83;2.22;;;;;;;30.61;35.98;101669.09;5221893;28;20449;-71
2022/07/24 11:10:53;;;;;;;2.78;2.22;;;;;;;30.57;36.29;101671.44;5220099;28;20022;-71
2022/07/24 11:13:31;;;;;;;5.97;2.10;;;;;;;30.80;36.30;101664.28;5226504;28;20030;-71
2022/07/24 11:16:11;;;;;;;3.60;2.17;;;;;;;30.94;37.07;101673.72;5224099;28;20125;-72
2022/07/24 11:18:51;;;;;;;3.47;2.35;;;;;;;31.00;36.86;101665.47;5227731;28;20044;-72
2022/07/24 11:21:38;;;;;;;3.85;2.40;;;;;;;31.00;36.67;101672.75;5221802;28;20034;-73
2022/07/24 11:24:19;;;;;;;4.18;2.72;;;;;;;30.85;36.94;101661.69;5213413;28;20367;-73
2022/07/24 11:27:16;;;;;;;2.93;2.20;;;;;;;31.18;37.55;101663.56;5227178;28;20470;-72
2022/07/24 11:29:52;;;;;;;3.15;2.00;;;;;;;31.06;37.74;101663.63;5218445;28;20279;-72
2022/07/24 11:32:27;;;;;;;2.88;1.73;;;;;;;31.04;37.49;101656.84;5213989;28;20029;-72
2022/07/24 11:35:01;;;;;;;2.58;1.90;;;;;;;30.86;36.96;101655.22;5223729;28;20125;-74
2022/07/24 11:37:34;;;;;;;3.22;2.00;;;;;;;31.06;36.67;101660.94;5215989;28;20070;-73
2022/07/24 11:40:07;;;;;;;3.60;2.00;;;;;;;31.05;35.66;101653.88;5213030;28;20587;-71
2022/07/24 11:42:38;;;;;;;3.67;1.98;;;;;;;31.07;35.39;101654.47;5216871;28;20475;-72